createdAt,value
2023-04-04T00:00:12.322Z,3.72
2023-04-04T00:01:12.301Z,3.65
2023-04-04T00:02:17.308Z,3.68
2023-04-04T00:03:12.379Z,3.60
2023-04-04T00:04:12.295Z,3.65
2023-04-04T00:05:12.240Z,3.65
2023-04-04T00:06:12.238Z,3.72
2023-04-04T00:07:12.225Z,3.66
2023-04-04T00:08:12.202Z,3.65
2023-04-04T00:09:12.181Z,3.61
2023-04-04T00:10:12.170Z,3.62
2023-04-04T00:11:12.178Z,3.66
2023-04-04T00:12:12.170Z,3.61
2023-04-04T00:13:17.162Z,3.61
2023-04-04T00:14:12.131Z,3.52
2023-04-04T00:15:12.184Z,3.58
2023-04-04T00:16:12.164Z,3.61
2023-04-04T00:17:12.102Z,3.61
2023-04-04T00:18:12.112Z,3.58
2023-04-04T00:19:12.068Z,3.52
2023-04-04T00:20:12.078Z,3.54
2023-04-04T00:21:12.055Z,3.55
2023-04-04T00:22:12.036Z,3.52
2023-04-04T00:23:12.025Z,3.52
2023-04-04T00:24:17.090Z,3.52
2023-04-04T00:25:12.005Z,3.54
2023-04-04T00:26:12.012Z,3.54
2023-04-04T00:27:11.977Z,3.58
2023-04-04T00:28:11.972Z,3.55
2023-04-04T00:29:11.963Z,3.55
2023-04-04T00:30:11.956Z,3.57
2023-04-04T00:31:11.972Z,3.55
2023-04-04T00:32:11.931Z,3.62
2023-04-04T00:33:11.928Z,3.51
2023-04-04T00:34:11.900Z,3.60
2023-04-04T00:35:16.925Z,3.57
2023-04-04T00:36:11.952Z,3.52
2023-04-04T00:37:11.866Z,3.55
2023-04-04T00:38:11.856Z,3.60
2023-04-04T00:39:11.851Z,3.52
2023-04-04T00:40:11.834Z,3.58
2023-04-04T00:41:11.831Z,3.51
2023-04-04T00:42:11.876Z,3.57
2023-04-04T00:43:11.831Z,3.60
2023-04-04T00:44:11.787Z,3.50
2023-04-04T00:45:11.776Z,3.55
2023-04-04T00:46:16.852Z,3.55
2023-04-04T00:47:11.753Z,3.48
2023-04-04T00:48:11.772Z,3.55
2023-04-04T00:49:11.731Z,3.51
2023-04-04T00:50:11.752Z,3.58
2023-04-04T00:51:11.744Z,3.52
2023-04-04T00:52:11.701Z,3.42
2023-04-04T00:53:11.720Z,3.48
2023-04-04T00:54:11.721Z,3.51
2023-04-04T00:55:11.684Z,3.51
2023-04-04T00:56:11.668Z,3.52
2023-04-04T00:57:16.667Z,3.32
2023-04-04T00:58:11.636Z,3.35
2023-04-04T00:59:11.677Z,3.31
2023-04-04T01:00:11.636Z,3.39
2023-04-04T01:01:11.629Z,3.32
2023-04-04T01:02:11.587Z,3.32
2023-04-04T01:03:11.579Z,3.33
2023-04-04T01:04:11.632Z,3.31
2023-04-04T01:05:11.593Z,3.39
2023-04-04T01:06:11.586Z,3.36
2023-04-04T01:07:11.557Z,3.35
2023-04-04T01:08:16.542Z,3.33
2023-04-04T01:09:11.505Z,3.23
2023-04-04T01:10:11.509Z,3.32
2023-04-04T01:11:11.496Z,3.33
2023-04-04T01:12:11.512Z,3.32
2023-04-04T01:13:11.460Z,3.36
2023-04-04T01:14:11.452Z,3.31
2023-04-04T01:15:11.460Z,3.39
2023-04-04T01:16:11.548Z,3.31
2023-04-04T01:17:11.416Z,3.32
2023-04-04T01:18:11.429Z,3.20
2023-04-04T01:19:16.425Z,3.32
2023-04-04T01:20:11.407Z,3.40
2023-04-04T01:21:11.390Z,3.36
2023-04-04T01:22:11.362Z,3.31
2023-04-04T01:23:11.387Z,3.29
2023-04-04T01:24:11.343Z,3.20
2023-04-04T01:25:11.340Z,3.33
2023-04-04T01:26:11.337Z,3.32
2023-04-04T01:27:11.311Z,3.33
2023-04-04T01:28:11.309Z,3.35
2023-04-04T01:29:11.283Z,3.33
2023-04-04T01:30:16.298Z,3.32
2023-04-04T01:31:11.272Z,3.29
2023-04-04T01:32:11.285Z,3.24
2023-04-04T01:33:11.238Z,3.23
2023-04-04T01:34:11.233Z,3.31
2023-04-04T01:35:11.212Z,3.29
2023-04-04T01:36:11.276Z,3.29
2023-04-04T01:37:11.216Z,3.28
2023-04-04T01:38:11.203Z,3.28
2023-04-04T01:39:11.253Z,3.20
2023-04-04T01:40:11.164Z,3.18
2023-04-04T01:41:16.171Z,3.21
2023-04-04T01:42:11.146Z,3.20
2023-04-04T01:43:11.154Z,3.05
2023-04-04T01:44:11.140Z,3.00
2023-04-04T01:45:11.103Z,3.06
2023-04-04T01:46:11.109Z,3.06
2023-04-04T01:47:11.091Z,3.03
2023-04-04T01:48:11.106Z,3.02
2023-04-04T01:49:11.361Z,3.05
2023-04-04T01:50:11.088Z,2.99
2023-04-04T01:51:11.038Z,2.93
2023-04-04T01:52:16.059Z,2.95
2023-04-04T01:53:11.017Z,2.90
2023-04-04T01:54:11.006Z,2.93
2023-04-04T01:55:11.014Z,2.92
2023-04-04T01:56:11.009Z,2.92
2023-04-04T01:57:10.982Z,2.95
2023-04-04T01:58:10.965Z,2.96
2023-04-04T01:59:11.070Z,2.89
2023-04-04T02:00:10.960Z,2.95
2023-04-04T02:01:10.940Z,2.85
2023-04-04T02:02:10.965Z,2.96
2023-04-04T02:03:15.926Z,2.78
2023-04-04T02:04:10.928Z,2.85
2023-04-04T02:05:10.891Z,2.78
2023-04-04T02:06:10.876Z,2.82
2023-04-04T02:07:10.870Z,2.84
2023-04-04T02:08:10.898Z,2.77
2023-04-04T02:09:10.840Z,2.82
2023-04-04T02:10:10.832Z,2.69
2023-04-04T02:11:10.995Z,2.69
2023-04-04T02:12:10.836Z,2.75
2023-04-04T02:13:10.796Z,2.63
2023-04-04T02:14:15.842Z,2.69
2023-04-04T02:15:10.772Z,2.66
2023-04-04T02:16:10.811Z,2.71
2023-04-04T02:17:10.765Z,2.63
2023-04-04T02:18:10.739Z,2.71
2023-04-04T02:19:10.728Z,2.66
2023-04-04T02:20:10.760Z,2.69
2023-04-04T02:21:10.709Z,2.59
2023-04-04T02:22:10.707Z,2.60
2023-04-04T02:23:10.683Z,2.64
2023-04-04T02:24:10.671Z,2.52
2023-04-04T02:25:15.684Z,2.61
2023-04-04T02:26:10.682Z,2.59
2023-04-04T02:27:10.676Z,2.56
2023-04-04T02:28:10.630Z,2.69
2023-04-04T02:29:10.620Z,2.66
2023-04-04T02:30:10.607Z,2.61
2023-04-04T02:31:10.601Z,2.66
2023-04-04T02:32:10.620Z,2.61
2023-04-04T02:33:10.577Z,2.67
2023-04-04T02:34:10.560Z,2.69
2023-04-04T02:35:10.559Z,2.66
2023-04-04T02:36:15.619Z,2.66
2023-04-04T02:37:10.542Z,2.64
2023-04-04T02:38:10.528Z,2.57
2023-04-04T02:39:10.504Z,2.60
2023-04-04T02:40:10.496Z,2.67
2023-04-04T02:41:10.484Z,2.60
2023-04-04T02:42:10.487Z,2.56
2023-04-04T02:43:10.486Z,2.57
2023-04-04T02:44:10.491Z,2.59
2023-04-04T02:45:10.440Z,2.63
2023-04-04T02:46:21.311Z,2.57
2023-04-04T02:47:16.478Z,2.54
2023-04-04T02:48:10.451Z,2.59
2023-04-04T02:49:10.401Z,2.61
2023-04-04T02:50:10.408Z,2.57
2023-04-04T02:51:10.375Z,2.56
2023-04-04T02:52:10.366Z,2.53
2023-04-04T02:53:10.378Z,2.57
2023-04-04T02:54:10.362Z,2.52
2023-04-04T02:55:10.347Z,2.54
2023-04-04T02:56:10.320Z,2.53
2023-04-04T02:57:10.358Z,2.41
2023-04-04T02:58:15.346Z,2.53
2023-04-04T02:59:10.317Z,2.45
2023-04-04T03:00:10.280Z,2.42
2023-04-04T03:01:10.353Z,2.39
2023-04-04T03:02:10.354Z,2.41
2023-04-04T03:03:10.415Z,2.38
2023-04-04T03:04:10.326Z,2.38
2023-04-04T03:05:10.225Z,2.35
2023-04-04T03:06:10.212Z,2.36
2023-04-04T03:07:10.202Z,2.28
2023-04-04T03:08:10.208Z,2.28
2023-04-04T03:09:15.230Z,2.31
2023-04-04T03:10:10.168Z,2.35
2023-04-04T03:11:10.161Z,2.35
2023-04-04T03:12:10.146Z,2.30
2023-04-04T03:13:10.152Z,2.42
2023-04-04T03:14:10.142Z,2.36
2023-04-04T03:15:10.137Z,2.34
2023-04-04T03:16:10.130Z,2.28
2023-04-04T03:17:10.091Z,2.23
2023-04-04T03:18:10.146Z,2.25
2023-04-04T03:19:10.077Z,2.25
2023-04-04T03:20:15.158Z,2.28
2023-04-04T03:21:10.080Z,2.31
2023-04-04T03:22:10.031Z,2.21
2023-04-04T03:23:10.033Z,2.20
2023-04-04T03:24:10.021Z,2.20
2023-04-04T03:25:10.007Z,2.21
2023-04-04T03:26:09.989Z,2.21
2023-04-04T03:27:10.003Z,2.20
2023-04-04T03:28:09.989Z,2.20
2023-04-04T03:29:09.958Z,2.21
2023-04-04T03:30:10.055Z,2.20
2023-04-04T03:31:14.962Z,2.23
2023-04-04T03:32:09.942Z,2.20
2023-04-04T03:33:10.209Z,2.18
2023-04-04T03:34:09.899Z,2.20
2023-04-04T03:35:09.887Z,2.31
2023-04-04T03:36:09.896Z,2.21
2023-04-04T03:37:09.866Z,2.21
2023-04-04T03:38:09.926Z,2.17
2023-04-04T03:39:09.870Z,2.16
2023-04-04T03:40:09.836Z,2.21
2023-04-04T03:41:09.821Z,2.21
2023-04-04T03:42:14.830Z,2.20
2023-04-04T03:43:09.810Z,2.21
2023-04-04T03:44:09.787Z,2.25
2023-04-04T03:45:09.799Z,2.20
2023-04-04T03:46:09.877Z,2.21
2023-04-04T03:47:09.770Z,2.27
2023-04-04T03:48:09.754Z,2.21
2023-04-04T03:49:09.735Z,2.16
2023-04-04T03:50:09.722Z,2.17
2023-04-04T03:51:09.736Z,2.23
2023-04-04T03:52:09.700Z,2.18
2023-04-04T03:53:14.723Z,2.18
2023-04-04T03:54:09.680Z,2.10
2023-04-04T03:55:09.670Z,2.06
2023-04-04T03:56:09.652Z,2.10
2023-04-04T03:57:09.665Z,2.12
2023-04-04T03:58:09.639Z,2.06
2023-04-04T03:59:09.684Z,2.05
2023-04-04T04:00:09.622Z,2.16
2023-04-04T04:01:09.596Z,2.05
2023-04-04T04:02:09.633Z,2.06
2023-04-04T04:03:09.673Z,2.03
2023-04-04T04:04:14.648Z,2.03
2023-04-04T04:05:09.551Z,2.09
2023-04-04T04:06:09.542Z,2.05
2023-04-04T04:07:09.528Z,2.06
2023-04-04T04:08:09.526Z,2.00
2023-04-04T04:09:09.536Z,2.07
2023-04-04T04:10:09.497Z,2.07
2023-04-04T04:11:09.483Z,2.09
2023-04-04T04:12:09.474Z,2.05
2023-04-04T04:13:09.478Z,2.10
2023-04-04T04:14:09.452Z,2.09
2023-04-04T04:15:14.493Z,2.05
2023-04-04T04:16:09.489Z,2.05
2023-04-04T04:17:09.417Z,2.10
2023-04-04T04:18:09.436Z,2.02
2023-04-04T04:19:09.398Z,1.99
2023-04-04T04:20:09.388Z,2.07
2023-04-04T04:21:09.405Z,1.98
2023-04-04T04:22:09.360Z,1.95
2023-04-04T04:23:09.360Z,2.00
2023-04-04T04:24:09.337Z,2.02
2023-04-04T04:25:09.330Z,1.95
2023-04-04T04:26:14.340Z,1.95
2023-04-04T04:27:09.342Z,1.91
2023-04-04T04:28:09.316Z,1.98
2023-04-04T04:29:09.286Z,1.95
2023-04-04T04:30:09.281Z,1.88
2023-04-04T04:31:09.286Z,2.00
2023-04-04T04:32:09.255Z,1.99
2023-04-04T04:33:09.288Z,1.99
2023-04-04T04:34:09.252Z,2.00
2023-04-04T04:35:09.226Z,1.99
2023-04-04T04:36:09.250Z,1.95
2023-04-04T04:37:14.223Z,2.02
2023-04-04T04:38:09.206Z,2.03
2023-04-04T04:39:09.199Z,2.02
2023-04-04T04:40:09.164Z,1.93
2023-04-04T04:41:09.160Z,1.90
2023-04-04T04:42:09.151Z,1.91
2023-04-04T04:43:09.145Z,1.88
2023-04-04T04:44:09.128Z,1.88
2023-04-04T04:45:09.121Z,1.84
2023-04-04T04:46:09.100Z,1.81
2023-04-04T04:47:09.100Z,1.90
2023-04-04T04:48:14.116Z,1.88
2023-04-04T04:49:09.094Z,1.91
2023-04-04T04:50:09.162Z,1.88
2023-04-04T04:51:09.071Z,1.91
2023-04-04T04:52:09.039Z,1.87
2023-04-04T04:53:09.047Z,1.86
2023-04-04T04:54:09.015Z,1.86
2023-04-04T04:55:09.000Z,1.84
2023-04-04T04:56:08.989Z,1.84
2023-04-04T04:57:09.034Z,1.87
2023-04-04T04:58:08.978Z,1.93
2023-04-04T04:59:14.066Z,1.95
2023-04-04T05:00:08.944Z,1.90
2023-04-04T05:01:08.953Z,1.83
2023-04-04T05:02:08.941Z,1.80
2023-04-04T05:03:08.960Z,1.86
2023-04-04T05:04:08.898Z,1.88
2023-04-04T05:05:08.888Z,1.86
2023-04-04T05:06:08.913Z,1.87
2023-04-04T05:07:08.881Z,1.77
2023-04-04T05:08:08.865Z,1.88
2023-04-04T05:09:08.861Z,1.88
2023-04-04T05:10:13.853Z,1.86
2023-04-04T05:11:08.817Z,1.93
2023-04-04T05:12:08.808Z,1.90
2023-04-04T05:13:08.807Z,1.81
2023-04-04T05:14:08.797Z,1.93
2023-04-04T05:15:08.791Z,1.87
2023-04-04T05:16:08.791Z,1.88
2023-04-04T05:17:08.754Z,1.81
2023-04-04T05:18:08.771Z,1.98
2023-04-04T05:19:08.739Z,1.90
2023-04-04T05:20:08.729Z,1.91
2023-04-04T05:21:13.771Z,1.88
2023-04-04T05:22:08.712Z,1.88
2023-04-04T05:23:08.690Z,1.95
2023-04-04T05:24:08.687Z,1.87
2023-04-04T05:25:08.670Z,1.90
2023-04-04T05:26:08.673Z,1.90
2023-04-04T05:27:08.654Z,1.95
2023-04-04T05:28:08.635Z,1.99
2023-04-04T05:29:08.630Z,1.99
2023-04-04T05:30:08.615Z,2.02
2023-04-04T05:31:08.599Z,2.06
2023-04-04T05:32:13.695Z,2.09
2023-04-04T05:33:08.642Z,2.05
2023-04-04T05:34:08.609Z,2.00
2023-04-04T05:35:08.591Z,2.07
2023-04-04T05:36:08.573Z,2.10
2023-04-04T05:37:08.557Z,2.05
2023-04-04T05:38:08.535Z,2.09
2023-04-04T05:39:08.531Z,2.02
2023-04-04T05:40:08.526Z,2.07
2023-04-04T05:41:08.494Z,2.07
2023-04-04T05:42:08.488Z,2.09
2023-04-04T05:43:13.491Z,2.10
2023-04-04T05:44:08.466Z,2.17
2023-04-04T05:45:08.464Z,2.23
2023-04-04T05:46:08.473Z,2.18
2023-04-04T05:47:08.427Z,2.18
2023-04-04T05:48:08.411Z,2.24
2023-04-04T05:49:08.407Z,2.39
2023-04-04T05:50:08.389Z,2.56
2023-04-04T05:51:09.818Z,2.61
2023-04-04T05:52:08.368Z,2.84
2023-04-04T05:53:08.374Z,2.77
2023-04-04T05:54:13.385Z,2.75
2023-04-04T05:55:08.330Z,2.90
2023-04-04T05:56:08.322Z,2.90
2023-04-04T05:57:08.332Z,2.97
2023-04-04T05:58:08.299Z,2.92
2023-04-04T05:59:08.319Z,2.93
2023-04-04T06:00:08.278Z,2.90
2023-04-04T06:01:08.263Z,2.93
2023-04-04T06:02:08.320Z,2.90
2023-04-04T06:03:08.372Z,2.92
2023-04-04T06:04:08.242Z,2.93
2023-04-04T06:05:13.328Z,2.77
2023-04-04T06:06:08.278Z,2.84
2023-04-04T06:07:08.208Z,2.92
2023-04-04T06:08:08.189Z,2.77
2023-04-04T06:09:08.904Z,2.81
2023-04-04T06:10:08.188Z,2.75
2023-04-04T06:11:08.152Z,2.81
2023-04-04T06:12:08.143Z,2.77
2023-04-04T06:13:08.131Z,2.69
2023-04-04T06:14:08.134Z,2.79
2023-04-04T06:15:08.130Z,2.75
2023-04-04T06:16:13.172Z,2.92
2023-04-04T06:17:08.088Z,2.96
2023-04-04T06:18:08.113Z,2.96
2023-04-04T06:19:08.084Z,2.92
2023-04-04T06:20:08.055Z,2.95
2023-04-04T06:21:08.074Z,2.92
2023-04-04T06:22:08.032Z,2.99
2023-04-04T06:23:08.023Z,2.93
2023-04-04T06:24:08.023Z,2.95
2023-04-04T06:25:08.023Z,2.96
2023-04-04T06:26:07.995Z,3.06
2023-04-04T06:27:13.026Z,3.06
2023-04-04T06:28:07.978Z,3.13
2023-04-04T06:29:07.966Z,3.02
2023-04-04T06:30:10.282Z,3.17
2023-04-04T06:31:07.954Z,3.10
2023-04-04T06:32:07.928Z,3.14
2023-04-04T06:33:07.952Z,3.20
2023-04-04T06:34:07.920Z,3.23
2023-04-04T06:35:07.899Z,3.26
2023-04-04T06:36:07.885Z,3.28
2023-04-04T06:37:07.887Z,3.14
2023-04-04T06:38:12.878Z,3.28
2023-04-04T06:39:07.882Z,3.26
2023-04-04T06:40:07.834Z,3.15
2023-04-04T06:41:07.839Z,3.23
2023-04-04T06:42:07.825Z,3.39
2023-04-04T06:43:07.796Z,3.39
2023-04-04T06:44:07.799Z,3.45
2023-04-04T06:45:07.803Z,3.39
2023-04-04T06:46:07.777Z,3.47
2023-04-04T06:47:07.773Z,3.42
2023-04-04T06:48:07.782Z,3.45
2023-04-04T06:49:12.782Z,3.48
2023-04-04T06:50:07.727Z,3.54
2023-04-04T06:51:07.758Z,3.65
2023-04-04T06:52:07.701Z,3.40
2023-04-04T06:53:07.692Z,3.43
2023-04-04T06:54:07.682Z,3.55
2023-04-04T06:55:07.670Z,3.60
2023-04-04T06:56:07.658Z,3.69
2023-04-04T06:57:07.707Z,3.72
2023-04-04T06:58:07.635Z,3.88
2023-04-04T06:59:07.665Z,3.87
2023-04-04T07:00:12.642Z,4.00
2023-04-04T07:01:07.613Z,4.04
2023-04-04T07:02:07.648Z,4.32
2023-04-04T07:03:07.637Z,4.72
2023-04-04T07:04:07.570Z,5.13
2023-04-04T07:05:07.555Z,5.64
2023-04-04T07:06:07.575Z,5.89
2023-04-04T07:07:07.547Z,5.90
2023-04-04T07:08:07.536Z,5.89
2023-04-04T07:09:12.784Z,5.71
2023-04-04T07:10:07.520Z,5.54
2023-04-04T07:11:12.513Z,5.74
2023-04-04T07:12:07.478Z,5.86
2023-04-04T07:13:07.496Z,6.01
2023-04-04T07:14:07.463Z,6.18
2023-04-04T07:15:07.485Z,6.22
2023-04-04T07:16:07.450Z,6.40
2023-04-04T07:17:17.196Z,6.58
2023-04-04T07:18:07.434Z,6.74
2023-04-04T07:19:07.402Z,6.77
2023-04-04T07:20:07.399Z,6.74
2023-04-04T07:21:07.400Z,6.73
2023-04-04T07:22:12.418Z,6.48
2023-04-04T07:23:07.378Z,6.14
2023-04-04T07:24:07.378Z,5.64
2023-04-04T07:25:07.370Z,5.25
2023-04-04T07:26:07.321Z,5.22
2023-04-04T07:27:07.330Z,5.17
2023-04-04T07:28:13.030Z,5.21
2023-04-04T07:29:07.348Z,5.20
2023-04-04T07:30:07.297Z,5.35
2023-04-04T07:31:07.262Z,5.40
2023-04-04T07:32:07.375Z,5.61
2023-04-04T07:33:12.297Z,5.71
2023-04-04T07:34:07.233Z,5.90
2023-04-04T07:35:07.213Z,6.14
2023-04-04T07:36:07.250Z,6.00
2023-04-04T07:37:07.201Z,6.25
2023-04-04T07:38:07.177Z,6.46
2023-04-04T07:39:07.199Z,6.79
2023-04-04T07:40:07.154Z,7.16
2023-04-04T07:41:07.144Z,7.27
2023-04-04T07:42:07.132Z,7.32
2023-04-04T07:43:07.129Z,7.43
2023-04-04T07:44:12.162Z,6.97
2023-04-04T07:45:07.152Z,6.84
2023-04-04T07:46:07.156Z,6.46
2023-04-04T07:47:10.218Z,6.30
2023-04-04T07:48:07.075Z,6.33
2023-04-04T07:49:07.075Z,6.41
2023-04-04T07:50:07.043Z,6.59
2023-04-04T07:51:07.072Z,6.55
2023-04-04T07:52:07.043Z,6.74
2023-04-04T07:53:07.016Z,6.95
2023-04-04T07:54:07.049Z,7.40
2023-04-04T07:55:12.004Z,7.89
2023-04-04T07:56:06.971Z,7.98
2023-04-04T07:57:06.979Z,8.08
2023-04-04T07:58:06.951Z,7.92
2023-04-04T07:59:06.974Z,7.32
2023-04-04T08:00:06.943Z,7.55
2023-04-04T08:01:06.915Z,7.82
2023-04-04T08:02:06.901Z,8.50
2023-04-04T08:03:06.943Z,8.99
2023-04-04T08:04:06.976Z,9.40
2023-04-04T08:05:06.873Z,9.04
2023-04-04T08:06:11.879Z,8.37
2023-04-04T08:07:06.851Z,8.44
2023-04-04T08:08:06.836Z,7.92
2023-04-04T08:09:06.856Z,7.74
2023-04-04T08:10:06.809Z,7.20
2023-04-04T08:11:06.798Z,6.97
2023-04-04T08:12:06.786Z,6.97
2023-04-04T08:13:06.778Z,6.81
2023-04-04T08:14:06.790Z,6.88
2023-04-04T08:15:06.780Z,7.28
2023-04-04T08:16:06.784Z,6.95
2023-04-04T08:17:11.755Z,6.81
2023-04-04T08:18:06.740Z,7.02
2023-04-04T08:19:06.720Z,7.17
2023-04-04T08:20:06.710Z,7.34
2023-04-04T08:21:06.721Z,7.83
2023-04-04T08:22:06.673Z,7.90
2023-04-04T08:23:06.660Z,7.60
2023-04-04T08:24:06.679Z,7.31
2023-04-04T08:25:06.641Z,7.60
2023-04-04T08:26:06.628Z,7.83
2023-04-04T08:27:06.629Z,8.33
2023-04-04T08:28:11.642Z,8.76
2023-04-04T08:29:06.626Z,9.02
2023-04-04T08:30:06.583Z,9.43
2023-04-04T08:31:06.596Z,9.71
2023-04-04T08:32:06.576Z,9.91
2023-04-04T08:33:06.666Z,9.74
2023-04-04T08:34:06.536Z,9.26
2023-04-04T08:35:06.538Z,9.20
2023-04-04T08:36:06.535Z,9.51
2023-04-04T08:37:06.501Z,9.83
2023-04-04T08:38:06.490Z,9.50
2023-04-04T08:39:11.540Z,9.51
2023-04-04T08:40:06.479Z,9.68
2023-04-04T08:41:06.454Z,9.48
2023-04-04T08:42:06.455Z,9.18
2023-04-04T08:43:06.437Z,8.98
2023-04-04T08:44:06.421Z,8.68
2023-04-04T08:45:06.441Z,8.55
2023-04-04T08:46:06.412Z,8.52
2023-04-04T08:47:06.550Z,8.92
2023-04-04T08:48:06.482Z,9.02
2023-04-04T08:49:06.434Z,8.65
2023-04-04T08:50:11.392Z,8.33
2023-04-04T08:51:06.364Z,8.22
2023-04-04T08:52:06.458Z,8.00
2023-04-04T08:53:06.327Z,7.83
2023-04-04T08:54:06.313Z,7.89
2023-04-04T08:55:06.331Z,7.95
2023-04-04T08:56:06.292Z,7.92
2023-04-04T08:57:06.297Z,8.01
2023-04-04T08:58:06.275Z,8.12
2023-04-04T08:59:06.380Z,8.11
2023-04-04T09:00:06.432Z,7.77
2023-04-04T09:01:11.311Z,7.92
2023-04-04T09:02:06.265Z,8.23
2023-04-04T09:03:06.350Z,8.55
2023-04-04T09:04:06.229Z,8.99
2023-04-04T09:05:07.341Z,9.39
2023-04-04T09:06:06.209Z,9.56
2023-04-04T09:07:06.170Z,9.31
2023-04-04T09:08:06.157Z,8.92
2023-04-04T09:09:06.161Z,9.20
2023-04-04T09:10:06.163Z,9.53
2023-04-04T09:11:06.140Z,9.42
2023-04-04T09:12:11.135Z,9.31
2023-04-04T09:13:15.502Z,9.32
2023-04-04T09:14:06.095Z,9.32
2023-04-04T09:15:06.131Z,9.04
2023-04-04T09:16:06.181Z,9.11
2023-04-04T09:17:06.054Z,9.28
2023-04-04T09:18:06.057Z,9.26
2023-04-04T09:19:06.037Z,9.54
2023-04-04T09:20:06.111Z,9.56
2023-04-04T09:21:06.030Z,9.94
2023-04-04T09:22:05.998Z,10.36
2023-04-04T09:23:11.009Z,10.56
2023-04-04T09:24:05.982Z,10.71
2023-04-04T09:25:05.972Z,10.94
2023-04-04T09:26:05.949Z,10.81
2023-04-04T09:27:05.955Z,10.60
2023-04-04T09:28:06.159Z,10.45
2023-04-04T09:29:05.928Z,10.27
2023-04-04T09:30:05.984Z,10.63
2023-04-04T09:31:06.132Z,10.82
2023-04-04T09:32:05.953Z,11.15
2023-04-04T09:33:05.975Z,11.37
2023-04-04T09:34:10.913Z,11.49
2023-04-04T09:35:05.860Z,11.36
2023-04-04T09:36:05.908Z,11.29
2023-04-04T09:37:05.838Z,10.61
2023-04-04T09:38:05.821Z,10.17
2023-04-04T09:39:05.821Z,10.42
2023-04-04T09:40:05.905Z,10.64
2023-04-04T09:41:05.902Z,10.84
2023-04-04T09:42:05.779Z,11.29
2023-04-04T09:43:05.756Z,11.49
2023-04-04T09:44:05.752Z,11.19
2023-04-04T09:45:13.221Z,10.96
2023-04-04T09:46:05.792Z,10.97
2023-04-04T09:47:05.745Z,11.43
2023-04-04T09:48:05.761Z,11.58
2023-04-04T09:49:05.697Z,11.61
2023-04-04T09:50:05.724Z,11.82
2023-04-04T09:51:05.727Z,12.04
2023-04-04T09:52:05.696Z,12.21
2023-04-04T09:53:05.649Z,12.32
2023-04-04T09:54:06.504Z,12.42
2023-04-04T09:55:05.640Z,12.14
2023-04-04T09:56:10.648Z,11.96
2023-04-04T09:57:05.609Z,11.94
2023-04-04T09:58:05.592Z,11.54
2023-04-04T09:59:05.582Z,11.55
2023-04-04T10:00:05.601Z,11.55
2023-04-04T10:01:05.574Z,11.49
2023-04-04T10:02:05.551Z,11.32
2023-04-04T10:03:05.586Z,11.07
2023-04-04T10:04:05.615Z,10.92
2023-04-04T10:05:06.557Z,11.03
2023-04-04T10:06:07.249Z,11.15
2023-04-04T10:07:10.528Z,10.86
2023-04-04T10:08:05.483Z,10.12
2023-04-04T10:09:05.475Z,10.05
2023-04-04T10:10:05.468Z,10.38
2023-04-04T10:12:05.447Z,10.26
2023-04-04T10:13:05.526Z,10.61
2023-04-04T10:14:05.460Z,10.85
2023-04-04T10:15:05.414Z,10.76
2023-04-04T10:16:05.454Z,11.00
2023-04-04T10:17:05.374Z,11.32
2023-04-04T10:18:10.389Z,11.73
2023-04-04T10:19:05.349Z,11.86
2023-04-04T10:20:05.343Z,11.90
2023-04-04T10:21:15.347Z,11.94
2023-04-04T10:22:05.316Z,11.17
2023-04-04T10:23:05.352Z,10.60
2023-04-04T10:24:05.293Z,10.22
2023-04-04T10:25:05.290Z,10.42
2023-04-04T10:26:05.299Z,10.55
2023-04-04T10:27:05.279Z,10.73
2023-04-04T10:28:05.281Z,10.92
2023-04-04T10:29:10.273Z,11.14
2023-04-04T10:30:05.223Z,11.21
2023-04-04T10:31:07.127Z,11.11
2023-04-04T10:32:05.252Z,11.17
2023-04-04T10:33:05.251Z,11.18
2023-04-04T10:34:05.246Z,10.86
2023-04-04T10:35:05.177Z,10.78
2023-04-04T10:36:05.184Z,10.52
2023-04-04T10:37:05.156Z,10.51
2023-04-04T10:38:05.130Z,10.32
2023-04-04T10:39:05.211Z,10.45
2023-04-04T10:40:10.196Z,10.55
2023-04-04T10:41:05.123Z,10.79
2023-04-04T10:42:05.090Z,9.87
2023-04-04T10:43:05.090Z,9.32
2023-04-04T10:44:05.077Z,9.46
2023-04-04T10:45:19.440Z,9.57
2023-04-04T10:46:05.114Z,9.51
2023-04-04T10:47:05.028Z,9.53
2023-04-04T10:48:05.039Z,9.90
2023-04-04T10:49:05.016Z,9.91
2023-04-04T10:50:05.012Z,9.90
2023-04-04T10:51:10.028Z,9.99
2023-04-04T10:52:05.031Z,10.07
2023-04-04T10:53:04.970Z,10.18
2023-04-04T10:54:04.966Z,10.23
2023-04-04T10:55:04.972Z,10.41
2023-04-04T10:56:04.964Z,10.40
2023-04-04T10:57:04.915Z,10.47
2023-04-04T10:58:04.913Z,10.70
2023-04-04T10:59:04.910Z,10.70
2023-04-04T11:00:04.880Z,10.85
2023-04-04T11:01:04.968Z,11.17
2023-04-04T11:02:09.880Z,11.40
2023-04-04T11:03:04.872Z,11.91
2023-04-04T11:04:04.873Z,11.95
2023-04-04T11:05:04.822Z,11.28
2023-04-04T11:06:04.819Z,11.51
2023-04-04T11:07:04.802Z,11.62
2023-04-04T11:08:08.711Z,11.80
2023-04-04T11:09:04.781Z,11.96
2023-04-04T11:10:04.776Z,12.39
2023-04-04T11:11:09.751Z,12.70
2023-04-04T11:12:05.744Z,12.93
2023-04-04T11:13:13.250Z,12.86
2023-04-04T11:14:04.729Z,12.90
2023-04-04T11:15:04.723Z,13.11
2023-04-04T11:16:04.785Z,13.19
2023-04-04T11:17:04.687Z,13.05
2023-04-04T11:18:17.357Z,13.28
2023-04-04T11:19:04.672Z,13.38
2023-04-04T11:20:04.663Z,13.54
2023-04-04T11:21:04.659Z,13.29
2023-04-04T11:22:04.693Z,13.22
2023-04-04T11:23:04.629Z,13.15
2023-04-04T11:24:09.633Z,13.38
2023-04-04T11:25:04.596Z,13.38
2023-04-04T11:26:04.583Z,13.10
2023-04-04T11:27:04.604Z,12.82
2023-04-04T11:28:04.620Z,12.89
2023-04-04T11:29:04.630Z,13.08
2023-04-04T11:30:06.299Z,13.23
2023-04-04T11:31:04.532Z,13.41
2023-04-04T11:32:04.562Z,13.44
2023-04-04T11:33:07.890Z,13.46
2023-04-04T11:34:04.496Z,13.23
2023-04-04T11:35:09.529Z,13.23
2023-04-04T11:36:06.134Z,13.62
2023-04-04T11:37:04.481Z,13.73
2023-04-04T11:38:04.558Z,13.84
2023-04-04T11:39:04.446Z,13.64
2023-04-04T11:40:04.436Z,13.73
2023-04-04T11:41:04.431Z,13.66
2023-04-04T11:42:04.430Z,13.60
2023-04-04T11:43:04.423Z,13.38
2023-04-04T11:44:04.400Z,13.30
2023-04-04T11:45:04.426Z,13.32
2023-04-04T11:46:09.425Z,13.51
2023-04-04T11:47:04.391Z,13.44
2023-04-04T11:48:04.376Z,13.36
2023-04-04T11:49:04.336Z,12.97
2023-04-04T11:50:04.324Z,12.89
2023-04-04T11:51:04.304Z,12.50
2023-04-04T11:52:04.300Z,12.23
2023-04-04T11:53:04.293Z,11.94
2023-04-04T11:54:04.268Z,11.94
2023-04-04T11:55:04.264Z,11.86
2023-04-04T11:56:04.254Z,11.78
2023-04-04T11:57:09.269Z,11.49
2023-04-04T11:58:04.225Z,11.18
2023-04-04T11:59:10.933Z,10.78
2023-04-04T12:00:05.199Z,10.92
2023-04-04T12:01:04.188Z,11.37
2023-04-04T12:02:04.223Z,11.82
2023-04-04T12:03:04.285Z,12.01
2023-04-04T12:04:04.167Z,12.13
2023-04-04T12:05:04.211Z,12.46
2023-04-04T12:06:04.140Z,12.97
2023-04-04T12:07:04.138Z,12.87
2023-04-04T12:08:09.150Z,12.97
2023-04-04T12:09:04.099Z,13.08
2023-04-04T12:10:04.121Z,13.44
2023-04-04T12:11:04.075Z,13.44
2023-04-04T12:12:04.089Z,13.64
2023-04-04T12:13:04.052Z,14.14
2023-04-04T12:14:04.046Z,14.61
2023-04-04T12:15:16.644Z,14.96
2023-04-04T12:16:05.065Z,15.29
2023-04-04T12:17:04.022Z,15.27
2023-04-04T12:18:04.058Z,15.38
2023-04-04T12:19:09.007Z,15.28
2023-04-04T12:20:04.003Z,15.59
2023-04-04T12:21:03.963Z,15.09
2023-04-04T12:22:05.319Z,14.86
2023-04-04T12:23:03.950Z,15.19
2023-04-04T12:24:03.936Z,15.59
2023-04-04T12:25:03.924Z,15.56
2023-04-04T12:26:03.921Z,15.59
2023-04-04T12:27:03.912Z,15.96
2023-04-04T12:28:03.885Z,16.43
2023-04-04T12:29:03.872Z,16.83
2023-04-04T12:30:08.946Z,16.66
2023-04-04T12:31:03.923Z,16.48
2023-04-04T12:32:03.848Z,16.17
2023-04-04T12:33:03.903Z,16.24
2023-04-04T12:34:03.819Z,15.39
2023-04-04T12:35:03.807Z,15.53
2023-04-04T12:36:03.877Z,15.97
2023-04-04T12:37:03.854Z,16.39
2023-04-04T12:38:03.803Z,16.71
2023-04-04T12:39:03.761Z,16.68
2023-04-04T12:40:03.766Z,16.78
2023-04-04T12:41:08.854Z,16.66
2023-04-04T12:42:03.785Z,16.56
2023-04-04T12:43:03.713Z,16.23
2023-04-04T12:44:03.698Z,16.12
2023-04-04T12:45:03.692Z,16.15
2023-04-04T12:46:03.826Z,16.58
2023-04-04T12:47:03.740Z,16.73
2023-04-04T12:48:03.687Z,17.18
2023-04-04T12:49:03.653Z,17.44
2023-04-04T12:50:03.655Z,17.54
2023-04-04T12:51:03.631Z,17.34
2023-04-04T12:52:08.653Z,17.30
2023-04-04T12:53:23.894Z,17.23
2023-04-04T12:54:03.588Z,17.28
2023-04-04T12:56:03.584Z,16.68
2023-04-04T12:57:03.566Z,16.21
2023-04-04T12:58:03.554Z,15.56
2023-04-04T12:59:03.729Z,15.20
2023-04-04T13:00:03.533Z,14.28
2023-04-04T13:01:03.534Z,13.78
2023-04-04T13:02:03.622Z,13.38
2023-04-04T13:03:08.697Z,13.23
2023-04-04T13:04:03.511Z,13.03
2023-04-04T13:05:03.531Z,12.72
2023-04-04T13:06:03.643Z,12.49
2023-04-04T13:07:03.460Z,12.29
2023-04-04T13:08:03.441Z,12.23
2023-04-04T13:09:03.430Z,12.01
2023-04-04T13:10:03.403Z,11.90
2023-04-04T13:11:03.504Z,11.75
2023-04-04T13:12:03.404Z,11.52
2023-04-04T13:13:03.386Z,11.36